• Join FlightAware (Why Join?)
  • Login
  • US Flag 
01:21AM EDT


 

Airport Tracker/Info


-or-


 

Live Flight TrackerFlight Track Log ✈ AWI3778 ✈ 30-Apr-2013 ✈ KBTV - KPHL

Flight Track Log - Related Links

Times and Time Zones

All times are in EDT time to prevent confusion due to time zone crossing. See the AWI3778 flight status page for this flight to view local times or setup timezone preferences in your user account.

Time Position Orientation Groundspeed Altitude Reporting Facility
EDT Latitude Longitude Course Direction KTS MPH feet Rate Location/Type
01:19PM 44.1733 -73.2574 196° South  Level FlightAware Approximate
01:19PM 44.3381 -73.1686 196° South 233 268 5,800  Level Boston Center
01:20PM 44.0758 -73.2964 196° South  Level FlightAware Approximate
01:20PM 44.2650 -73.1994 197° South 257 296 8,300  Level Boston Center
01:21PM 43.9783 -73.3354 196° South  Level FlightAware Approximate
01:21PM 44.1919 -73.2275 195° South 274 315 10,500  Level Boston Center
01:22PM 43.8807 -73.3738 195° South  Level FlightAware Approximate
01:22PM 44.1042 -73.2642 197° South 306 352 12,200  Level Boston Center
01:23PM 43.7827 -73.4100 195° South  Level FlightAware Approximate
01:23PM 44.0122 -73.3031 197° South 334 384 14,200  Level Boston Center
01:24PM 43.9203 -73.3394 196° South 355 409 16,200 1,740 Climbing Boston Center
01:25PM 43.8219 -73.3781 196° South 361 415 17,700 1,320 Climbing Boston Center
01:26PM 43.7194 -73.4197 196° South 371 427 18,900 1,140 Climbing Boston Center
01:27PM 43.6275 -73.4583 197° South 377 434 20,000 1,020 Climbing Boston Center
01:28PM 43.5189 -73.4994 195° South 388 447 21,000 960 Climbing Boston Center
01:29PM 43.4122 -73.5406 196° South 401 461 22,000 960 Climbing Boston Center
01:30PM 43.2992 -73.5842 196° South 411 473 23,000 960 Climbing Boston Center
01:31PM 43.1861 -73.6303 197° South 421 484 24,000 960 Climbing Boston Center
01:32PM 43.0606 -73.6819 197° South 426 490 25,000 960 Climbing Boston Center
01:33PM 42.9453 -73.7278 196° South 426 490 26,000 480 Climbing Boston Center
01:34PM 42.8281 -73.7736 196° South 426 490 26,000  Level Boston Center
01:35PM 42.7208 -73.8531 209° Southwest 431 496 26,000  Level Boston Center
01:36PM 42.6544 -73.9956 238° Southwest 419 482 26,000  Level Boston Center
01:37PM 42.6008 -74.1042 236° Southwest 432 497 26,000  Level Boston Center
01:38PM 42.5253 -74.2686 238° Southwest 437 503 26,000  Level Boston Center
01:39PM 42.4628 -74.3961 236° Southwest 432 497 26,000  Level Boston Center
01:40PM 42.3981 -74.5206 235° Southwest 420 483 26,000  Level Boston Center
01:41PM 42.3353 -74.6450 236° Southwest 413 475 26,000 -600 Level Boston Center
01:42PM 42.2558 -74.7514 225° Southwest 413 475 24,800 -1,320 Descending Boston Center
01:44PM 42.1103 -74.9389 224° Southwest 385 443 22,000 -1,500 Descending New York Center
01:45PM 42.0294 -75.0511 226° Southwest 385 443 20,300 -1,560 Descending New York Center
01:46PM 41.9531 -75.1439 222° Southwest 378 435 19,000 -660 Descending New York Center
01:47PM 41.8672 -75.2161 212° Southwest 367 422 19,000 -600 Level New York Center
01:48PM 41.7878 -75.2775 210° Southwest 367 422 17,800 -1,320 Descending New York Center
01:49PM 41.6933 -75.3544 211° Southwest 372 428 16,400 -1,440 Descending New York Center
01:50PM 41.6117 -75.4211 211° Southwest 366 421 15,000 -1,500 Descending New York Center
01:51PM 41.5319 -75.4847 211° Southwest 350 403 13,500 -1,440 Descending New York Center
01:52PM 41.4589 -75.5433 211° Southwest 345 397 12,100 -780 Descending New York Center
01:53PM 41.3814 -75.6042 211° Southwest 345 397 12,000 -60 Descending New York Center
01:54PM 41.2933 -75.6722 210° Southwest 345 397 12,000 -240 Level New York Center
01:55PM 41.2092 -75.6883 188° South 328 377 11,600 -840 Descending New York Center
01:56PM 41.1217 -75.6903 181° South 317 365 10,400 -840 Descending New York Center
01:57PM 41.0322 -75.6864 178° South 322 371 10,000 -240 Descending New York Center
01:58PM 40.9425 -75.6883 181° South 327 376 10,000  Level New York Center
01:59PM 40.8550 -75.6875 180° South 327 376 10,000  Level New York Center
02:00PM 40.7753 -75.6514 161° South 319 367 10,000  Level New York Center
02:01PM 40.7064 -75.6056 153° Southeast 313 360 10,000  Level New York Center
02:02PM 40.6214 -75.5447 151° Southeast 313 360 10,000  Level New York Center
02:03PM 40.5000 -75.4667 154° Southeast 300 345 10,000  Level Philadelphia TRACON
02:04PM 40.4731 -75.4472 151° Southeast 306 352 10,000 -420 Level New York Center
02:05PM 40.4158 -75.4189 159° South 268 308 9,400 -1,020 Descending New York Center
02:06PM 40.3739 -75.4758 226° Southwest 184 212 8,000 -1,320 Descending New York Center
02:07PM 40.3217 -75.4833 186° South 197 227 6,800 -1,440 Descending New York Center
02:08PM 40.2756 -75.4367 142° Southeast 183 211 5,100 -1,680 Descending New York Center
02:09PM 40.2206 -75.4031 155° Southeast 210 242 3,600 -1,080 Descending New York Center
02:10PM 40.1653 -75.3775 161° South 230 265 3,000 -300 Descending New York Center
02:11PM 40.1161 -75.3553 161° South 195 224 3,000  Level New York Center
02:11PM 40.1000 -75.3333 134° Southeast 170 196 3,000  Level Philadelphia TRACON
02:12PM 40.0500 -75.3167 166° South 165 190 3,000  Level Philadelphia TRACON